Time;durP1;ratioP1;P1;durP2;ratioP2;P2;SDS_P1;SDS_P2;PMS_P1;PMS_P2;Temp;Humidity;BMP_temperature;BMP_pressure;BME280_temperature;BME280_humidity;BME280_pressure;Samples;Min_cycle;Max_cycle;Signal;HPM_P1;HPM_P2
2022/11/24 00:00:07;;;;;;;11.02;4.35;;;7.20;99.90;;;;;;4982277;28;20053;-78
2022/11/24 00:02:33;;;;;;;10.43;6.88;;;7.20;99.90;;;;;;4966365;28;20554;-78
2022/11/24 00:04:58;;;;;;;10.38;3.80;;;7.30;99.90;;;;;;4981950;28;20046;-78
2022/11/24 00:07:24;;;;;;;8.65;4.72;;;7.20;99.90;;;;;;4982859;28;20057;-77
2022/11/24 00:09:49;;;;;;;11.02;5.38;;;7.30;99.90;;;;;;4983721;28;20100;-78
2022/11/24 00:12:15;;;;;;;14.02;5.70;;;7.30;99.90;;;;;;4983029;28;20508;-77
2022/11/24 00:14:41;;;;;;;10.00;3.70;;;7.20;99.90;;;;;;4982924;28;20058;-77
2022/11/24 00:17:06;;;;;;;10.95;5.20;;;7.20;99.90;;;;;;4965226;28;20049;-78
2022/11/24 00:19:32;;;;;;;11.13;5.57;;;7.20;99.90;;;;;;4983606;28;20046;-78
2022/11/24 00:21:57;;;;;;;20.25;6.70;;;7.20;99.90;;;;;;4983377;28;20390;-77
2022/11/24 00:24:23;;;;;;;7.50;4.65;;;7.10;99.90;;;;;;4982456;28;20070;-78
2022/11/24 00:26:49;;;;;;;11.07;5.55;;;7.10;99.90;;;;;;4982315;28;20086;-77
2022/11/24 00:29:14;;;;;;;6.82;4.07;;;7.10;99.90;;;;;;4983777;28;20497;-78
2022/11/24 00:31:41;;;;;;;11.65;5.00;;;7.10;99.90;;;;;;4965803;28;20042;-77
2022/11/24 00:34:10;;;;;;;14.05;7.00;;;7.00;99.90;;;;;;4981948;28;20080;-79
2022/11/24 00:36:36;;;;;;;17.20;4.80;;;7.00;99.90;;;;;;4965995;28;20095;-78
2022/11/24 00:39:10;;;;;;;16.95;5.35;;;7.00;99.90;;;;;;4983474;28;20464;-77
2022/11/24 00:41:36;;;;;;;12.98;5.55;;;7.00;99.90;;;;;;4983313;28;20058;-77
2022/11/24 00:44:02;;;;;;;25.13;6.45;;;7.00;99.90;;;;;;4983098;28;20445;-77
2022/11/24 00:46:28;;;;;;;17.23;6.70;;;7.00;99.90;;;;;;4981589;28;20169;-77
2022/11/24 00:48:54;;;;;;;10.15;3.90;;;7.00;99.90;;;;;;4965252;28;20531;-78
2022/11/24 00:51:22;;;;;;;12.27;4.75;;;7.10;99.90;;;;;;4983633;28;20042;-78
2022/11/24 00:53:48;;;;;;;27.55;4.72;;;7.00;99.90;;;;;;4982276;28;20052;-78
2022/11/24 00:56:14;;;;;;;11.10;4.40;;;7.10;99.90;;;;;;4985761;28;20042;-78
2022/11/24 00:58:40;;;;;;;23.50;4.13;;;7.10;99.90;;;;;;4987331;28;20125;-78
2022/11/24 01:01:26;;;;;;;15.15;5.32;;;7.10;99.90;;;;;;4968375;28;20460;-78
2022/11/24 01:03:53;;;;;;;34.17;5.35;;;7.10;99.90;;;;;;4986103;28;20042;-77
2022/11/24 01:06:21;;;;;;;13.35;5.18;;;7.20;99.90;;;;;;4985734;28;20100;-78
2022/11/24 01:08:47;;;;;;;16.02;4.25;;;7.20;99.90;;;;;;4986767;28;20057;-78
2022/11/24 01:11:15;;;;;;;13.68;5.82;;;7.30;99.90;;;;;;4969288;28;20046;-78
2022/11/24 01:13:43;;;;;;;9.60;4.85;;;7.30;99.90;;;;;;5001705;28;20062;-77
2022/11/24 01:16:22;;;;;;;13.88;4.10;;;7.30;99.90;;;;;;4984984;28;20050;-77
2022/11/24 01:18:49;;;;;;;10.23;4.32;;;7.40;99.90;;;;;;4986128;28;20049;-76
2022/11/24 01:21:15;;;;;;;10.50;4.43;;;7.50;99.90;;;;;;4985747;28;20065;-77
2022/11/24 01:23:41;;;;;;;12.50;4.47;;;7.50;99.90;;;;;;4985270;28;20046;-77
2022/11/24 01:26:09;;;;;;;12.30;4.35;;;7.50;99.90;;;;;;4985736;28;20042;-77
2022/11/24 01:28:35;;;;;;;15.57;5.63;;;7.50;99.90;;;;;;4986848;28;20671;-78
2022/11/24 01:31:04;;;;;;;9.88;5.93;;;7.50;99.90;;;;;;4984025;28;20448;-77
2022/11/24 01:33:30;;;;;;;21.25;6.07;;;7.60;99.90;;;;;;4985123;28;20133;-77
2022/11/24 01:35:56;;;;;;;14.27;6.30;;;7.60;99.90;;;;;;4986559;28;20185;-77
2022/11/24 01:38:22;;;;;;;19.98;4.53;;;7.60;99.90;;;;;;4985680;28;20370;-78
2022/11/24 01:40:48;;;;;;;22.98;5.95;;;7.60;99.90;;;;;;4985518;28;20048;-78
2022/11/24 01:43:19;;;;;;;12.30;4.68;;;7.60;99.90;;;;;;4986932;28;20563;-77
2022/11/24 01:45:46;;;;;;;17.10;5.10;;;7.60;99.90;;;;;;4986135;28;20045;-77
2022/11/24 01:48:23;;;;;;;12.40;4.78;;;7.60;99.90;;;;;;4984926;28;20081;-78
2022/11/24 01:50:55;;;;;;;18.35;4.95;;;7.60;99.90;;;;;;4984719;28;20121;-78
2022/11/24 01:53:22;;;;;;;21.38;4.20;;;7.60;99.90;;;;;;4984356;28;20050;-77
2022/11/24 01:55:49;;;;;;;10.70;4.85;;;7.70;99.90;;;;;;4985804;28;20045;-77
2022/11/24 01:58:20;;;;;;;16.25;6.55;;;7.60;99.90;;;;;;4987013;28;20121;-78
2022/11/24 02:00:46;;;;;;;7.47;3.93;;;7.70;99.90;;;;;;4985688;28;20057;-77
2022/11/24 02:03:17;;;;;;;14.68;4.45;;;7.70;99.90;;;;;;4985854;28;20761;-78
2022/11/24 02:05:49;;;;;;;9.68;3.80;;;7.60;99.90;;;;;;4983872;28;20133;-79
2022/11/24 02:08:23;;;;;;;7.40;3.20;;;7.70;99.90;;;;;;4986199;28;20051;-78
2022/11/24 02:10:49;;;;;;;11.93;4.40;;;7.60;99.90;;;;;;5039113;23;20046;-78
2022/11/24 02:13:15;;;;;;;18.00;3.90;;;7.60;99.90;;;;;;5005561;28;20042;-78
2022/11/24 02:15:41;;;;;;;12.48;3.40;;;7.60;99.90;;;;;;5004434;28;20034;-76
2022/11/24 02:18:07;;;;;;;6.78;3.53;;;7.60;99.90;;;;;;5004234;28;20073;-78
2022/11/24 02:20:33;;;;;;;6.97;3.90;;;7.60;99.90;;;;;;5005553;28;20526;-78
2022/11/24 02:23:30;;;;;;;6.43;2.53;;;7.60;99.90;;;;;;5003535;28;20057;-78
2022/11/24 02:26:28;;;;;;;9.27;2.80;;;7.60;99.90;;;;;;5005320;28;20046;-77
2022/11/24 02:28:53;;;;;;;7.30;3.72;;;7.60;99.90;;;;;;5004874;28;20511;-78
2022/11/24 02:31:19;;;;;;;9.60;3.42;;;7.60;99.90;;;;;;5006548;28;20076;-79
2022/11/24 02:33:47;;;;;;;9.57;4.70;;;7.60;99.90;;;;;;5025591;28;20164;-77
2022/11/24 02:36:13;;;;;;;13.07;4.97;;;7.60;99.90;;;;;;5024898;28;20120;-77
2022/11/24 02:38:38;;;;;;;12.27;2.50;;;7.60;99.90;;;;;;5024982;28;20120;-78
2022/11/24 02:41:12;;;;;;;9.02;3.83;;;7.60;99.90;;;;;;5017665;28;20045;-78
2022/11/24 02:43:46;;;;;;;12.43;4.95;;;7.60;99.90;;;;;;5007635;28;20037;-78
2022/11/24 02:46:12;;;;;;;6.30;2.58;;;7.60;99.90;;;;;;5022643;28;20045;-78
2022/11/24 02:48:38;;;;;;;13.15;6.13;;;7.60;99.90;;;;;;5024522;28;20037;-78
2022/11/24 02:51:04;;;;;;;9.05;5.20;;;7.60;99.90;;;;;;5024758;28;20594;-78
2022/11/24 02:53:30;;;;;;;8.45;3.15;;;7.60;99.90;;;;;;5024621;28;20483;-78
2022/11/24 02:55:55;;;;;;;14.52;4.50;;;7.60;99.90;;;;;;5020302;28;20041;-77
2022/11/24 02:58:21;;;;;;;6.53;3.03;;;7.50;99.90;;;;;;5020246;28;20045;-77
2022/11/24 03:00:47;;;;;;;10.02;3.67;;;7.50;99.90;;;;;;5004388;28;20046;-77
2022/11/24 03:03:12;;;;;;;10.68;2.90;;;7.50;99.90;;;;;;5003656;28;20416;-78
2022/11/24 03:05:38;;;;;;;3.85;2.38;;;7.50;99.90;;;;;;5004496;28;20046;-78
2022/11/24 03:08:04;;;;;;;5.80;2.55;;;7.50;99.90;;;;;;5004387;28;20046;-77
2022/11/24 03:10:30;;;;;;;18.80;3.78;;;7.50;99.90;;;;;;5010772;28;20124;-78
2022/11/24 03:12:56;;;;;;;9.23;5.60;;;7.40;99.90;;;;;;5024053;28;20191;-78
2022/11/24 03:15:22;;;;;;;9.05;4.03;;;7.40;99.90;;;;;;5022023;28;20034;-77
2022/11/24 03:17:49;;;;;;;16.35;4.15;;;7.40;99.90;;;;;;5023466;28;20044;-78
2022/11/24 03:20:15;;;;;;;9.63;4.78;;;7.40;99.90;;;;;;5024343;28;20061;-78
2022/11/24 03:22:41;;;;;;;7.95;3.00;;;7.40;99.90;;;;;;5022600;28;20045;-77
2022/11/24 03:25:07;;;;;;;9.55;3.45;;;7.40;99.90;;;;;;5022748;28;20385;-77
2022/11/24 03:27:32;;;;;;;7.40;2.33;;;7.40;99.90;;;;;;5004319;28;20037;-78
2022/11/24 03:29:58;;;;;;;9.38;3.28;;;7.40;99.90;;;;;;5003283;28;20121;-78
2022/11/24 03:32:24;;;;;;;11.40;2.88;;;7.40;99.90;;;;;;5004041;28;20469;-78
2022/11/24 03:34:50;;;;;;;6.43;2.88;;;7.40;99.90;;;;;;5004285;28;20050;-78
2022/11/24 03:37:15;;;;;;;11.13;2.83;;;7.40;99.90;;;;;;5004628;28;20526;-78
2022/11/24 03:39:41;;;;;;;6.95;2.63;;;7.40;99.90;;;;;;5003471;28;20454;-78
2022/11/24 03:42:07;;;;;;;7.65;3.50;;;7.40;99.90;;;;;;5004309;28;20480;-77
2022/11/24 03:44:33;;;;;;;7.38;3.13;;;7.40;99.90;;;;;;5003371;28;20054;-77
2022/11/24 03:46:58;;;;;;;7.10;4.10;;;7.50;99.90;;;;;;5018856;28;20077;-78
2022/11/24 03:49:24;;;;;;;16.88;3.95;;;7.50;99.90;;;;;;5004264;28;20129;-77
2022/11/24 03:51:49;;;;;;;12.63;3.67;;;7.50;99.90;;;;;;5003389;28;20549;-78
2022/11/24 03:54:15;;;;;;;8.23;2.80;;;7.50;99.90;;;;;;5007372;28;20040;-79
2022/11/24 03:56:41;;;;;;;4.97;2.55;;;7.50;99.90;;;;;;5022485;28;20049;-77
2022/11/24 03:59:07;;;;;;;5.30;2.38;;;7.60;99.90;;;;;;5023546;28;20041;-79
2022/11/24 04:01:33;;;;;;;6.93;3.15;;;7.50;99.90;;;;;;5021190;28;20046;-78
2022/11/24 04:03:59;;;;;;;10.73;3.20;;;7.50;99.90;;;;;;5023118;28;20391;-77
2022/11/24 04:06:24;;;;;;;14.45;4.40;;;7.50;99.90;;;;;;5023419;28;20048;-78
2022/11/24 04:08:50;;;;;;;13.38;3.85;;;7.60;99.90;;;;;;5023109;28;20124;-79
2022/11/24 04:14:00;;;;;;;24.00;4.75;;;7.50;99.90;;;;;;5023278;28;20049;-78
2022/11/24 04:16:25;;;;;;;4.25;2.42;;;7.60;99.90;;;;;;5022571;28;20048;-77
2022/11/24 04:18:52;;;;;;;8.77;2.55;;;7.50;99.90;;;;;;5022028;28;20434;-77
2022/11/24 04:21:18;;;;;;;31.08;4.60;;;7.50;99.90;;;;;;5023365;28;20049;-78
2022/11/24 04:23:44;;;;;;;13.30;4.00;;;7.50;99.90;;;;;;5023659;28;20113;-77
2022/11/24 04:26:09;;;;;;;8.93;2.45;;;7.50;99.90;;;;;;5014614;28;20129;-78
2022/11/24 04:28:35;;;;;;;10.35;2.72;;;7.50;99.90;;;;;;5003502;28;20053;-78
2022/11/24 04:31:02;;;;;;;9.25;2.70;;;7.50;99.90;;;;;;5001641;28;20069;-77
2022/11/24 04:33:27;;;;;;;4.60;2.75;;;7.40;99.90;;;;;;5003654;28;20129;-77
2022/11/24 04:35:53;;;;;;;10.50;4.22;;;7.40;99.90;;;;;;5002947;28;20125;-79
2022/11/24 04:38:18;;;;;;;23.70;3.95;;;7.40;99.90;;;;;;5002038;28;20049;-78
2022/11/24 04:40:44;;;;;;;16.45;3.95;;;7.40;99.90;;;;;;5002777;28;20108;-77
2022/11/24 04:43:09;;;;;;;6.45;4.28;;;7.40;99.90;;;;;;5001853;28;20404;-78
2022/11/24 04:45:35;;;;;;;9.27;3.83;;;7.40;99.90;;;;;;5002382;28;20048;-78
2022/11/24 04:48:01;;;;;;;9.75;2.42;;;7.40;99.90;;;;;;5003416;28;20525;-77
2022/11/24 04:50:26;;;;;;;5.60;1.92;;;7.40;99.90;;;;;;5003045;28;20046;-78
2022/11/24 04:52:52;;;;;;;4.53;2.72;;;7.40;99.90;;;;;;5002545;28;20038;-78
2022/11/24 04:55:17;;;;;;;11.05;4.10;;;7.40;99.90;;;;;;5015284;28;20120;-77
2022/11/24 04:57:43;;;;;;;8.63;1.75;;;7.30;99.90;;;;;;5023270;28;20400;-77
2022/11/24 05:00:09;;;;;;;5.07;2.70;;;7.30;99.90;;;;;;5021681;28;20084;-78
2022/11/24 05:02:36;;;;;;;11.68;3.50;;;7.30;99.90;;;;;;5021384;28;20053;-79
2022/11/24 05:05:01;;;;;;;5.30;3.03;;;7.30;99.90;;;;;;5022976;28;20049;-77
2022/11/24 05:07:27;;;;;;;10.13;4.25;;;7.20;99.90;;;;;;5022977;28;20049;-77
2022/11/24 05:12:38;;;;;;;19.92;3.72;;;7.20;99.90;;;;;;4964157;28;20055;-77
2022/11/24 05:15:04;;;;;;;7.00;3.45;;;7.20;99.90;;;;;;4963379;28;20110;-77
2022/11/24 05:17:32;;;;;;;4.75;2.83;;;7.20;99.90;;;;;;4963965;28;20055;-78
2022/11/24 05:19:58;;;;;;;4.78;2.78;;;7.20;99.90;;;;;;4963268;28;20050;-78
2022/11/24 05:22:24;;;;;;;6.85;3.42;;;7.20;99.90;;;;;;4964024;28;20038;-78
2022/11/24 05:24:49;;;;;;;6.18;2.65;;;7.20;99.90;;;;;;4964051;28;20039;-77
2022/11/24 05:27:15;;;;;;;15.85;4.53;;;7.20;99.90;;;;;;4962784;28;20043;-77
2022/11/24 05:29:41;;;;;;;9.60;3.20;;;7.20;99.90;;;;;;4962985;28;20467;-78
2022/11/24 05:32:06;;;;;;;5.40;3.05;;;7.10;99.90;;;;;;4963367;28;20046;-78
2022/11/24 05:34:32;;;;;;;8.95;3.47;;;7.20;99.90;;;;;;4964165;28;20046;-78
2022/11/24 05:37:02;;;;;;;13.05;4.40;;;7.10;99.90;;;;;;4972884;28;20042;-77
2022/11/24 05:39:32;;;;;;;11.75;2.67;;;7.10;99.90;;;;;;4969063;28;20049;-77
2022/11/24 05:41:58;;;;;;;5.07;2.33;;;7.20;99.90;;;;;;4965714;28;20079;-79
2022/11/24 05:44:23;;;;;;;5.40;3.15;;;7.20;99.90;;;;;;4966201;28;20673;-78
2022/11/24 05:46:49;;;;;;;6.70;2.55;;;7.20;99.90;;;;;;4967012;28;20046;-79
2022/11/24 05:49:14;;;;;;;4.10;2.60;;;7.20;99.90;;;;;;4967633;28;20070;-79
2022/11/24 05:51:40;;;;;;;16.63;3.13;;;7.20;99.90;;;;;;4967064;28;20046;-78
2022/11/24 05:54:05;;;;;;;5.15;3.45;;;7.20;99.90;;;;;;4968200;28;20125;-78
2022/11/24 05:56:31;;;;;;;9.52;3.63;;;7.20;99.90;;;;;;4972731;28;20039;-79
2022/11/24 05:58:57;;;;;;;8.85;2.90;;;7.20;99.90;;;;;;4966991;28;20047;-77
2022/11/24 06:01:22;;;;;;;7.60;3.35;;;7.20;99.90;;;;;;4962905;28;20122;-79
2022/11/24 06:03:48;;;;;;;8.63;3.67;;;7.20;99.90;;;;;;4965690;28;20047;-79
2022/11/24 06:06:13;;;;;;;8.77;3.20;;;7.20;99.90;;;;;;4965511;28;20069;-78
2022/11/24 06:08:39;;;;;;;5.43;2.55;;;7.20;99.90;;;;;;4970953;28;20042;-78
2022/11/24 06:11:16;;;;;;;10.70;3.33;;;7.20;99.90;;;;;;4990538;28;20508;-79
2022/11/24 06:13:44;;;;;;;9.57;3.38;;;7.20;99.90;;;;;;5005880;28;20053;-78
2022/11/24 06:16:10;;;;;;;8.10;3.65;;;7.20;99.90;;;;;;5006974;28;20037;-77
2022/11/24 06:18:35;;;;;;;12.57;3.05;;;7.20;99.90;;;;;;5011412;28;20046;-77
2022/11/24 06:21:02;;;;;;;5.88;3.58;;;7.30;99.90;;;;;;5010729;28;20037;-77
2022/11/24 06:23:28;;;;;;;5.53;3.10;;;7.30;99.90;;;;;;5003807;28;20132;-77
2022/11/24 06:25:55;;;;;;;6.32;2.72;;;7.30;99.90;;;;;;5008328;28;20471;-78
2022/11/24 06:28:21;;;;;;;6.10;2.63;;;7.30;99.90;;;;;;5004887;28;20050;-77
2022/11/24 06:30:47;;;;;;;5.45;3.47;;;7.30;99.90;;;;;;4987290;28;20558;-77
2022/11/24 06:33:12;;;;;;;6.65;3.97;;;7.30;99.90;;;;;;5001445;28;20092;-77
2022/11/24 06:35:38;;;;;;;5.13;2.72;;;7.30;99.90;;;;;;5004844;28;20567;-81
2022/11/24 06:38:04;;;;;;;4.63;2.08;;;7.30;99.90;;;;;;5004123;28;20044;-77
2022/11/24 06:40:30;;;;;;;14.93;2.95;;;7.30;99.90;;;;;;5003890;28;20040;-77
2022/11/24 06:42:55;;;;;;;7.80;3.58;;;7.30;99.90;;;;;;5004557;28;20046;-78
2022/11/24 06:45:22;;;;;;;7.53;2.22;;;7.30;99.90;;;;;;5004445;28;20054;-78
2022/11/24 06:47:47;;;;;;;4.38;3.03;;;7.30;99.90;;;;;;5005617;28;20053;-78
2022/11/24 06:50:13;;;;;;;6.32;2.78;;;7.20;99.90;;;;;;5004287;28;20144;-78
2022/11/24 06:52:39;;;;;;;5.10;3.67;;;7.20;99.90;;;;;;5002654;28;20049;-77
2022/11/24 06:55:05;;;;;;;8.07;3.17;;;7.20;99.90;;;;;;5011937;28;20045;-78
2022/11/24 06:57:31;;;;;;;6.22;2.58;;;7.20;99.90;;;;;;5004983;28;20033;-76
2022/11/24 06:59:57;;;;;;;6.93;2.28;;;7.20;99.90;;;;;;5013985;28;20049;-82
2022/11/24 07:02:23;;;;;;;5.75;2.90;;;7.10;99.90;;;;;;5002405;28;20041;-78
2022/11/24 07:04:48;;;;;;;4.25;2.53;;;7.10;99.90;;;;;;4985900;28;20064;-78
2022/11/24 07:07:14;;;;;;;5.90;2.35;;;7.00;99.90;;;;;;5005143;28;20038;-82
2022/11/24 07:09:39;;;;;;;8.25;2.78;;;7.00;99.90;;;;;;5002959;28;20397;-77
2022/11/24 07:12:05;;;;;;;10.00;1.90;;;7.00;99.90;;;;;;5004073;28;20077;-80
2022/11/24 07:14:31;;;;;;;4.25;3.05;;;7.00;99.90;;;;;;5002798;28;20056;-81
2022/11/24 07:16:57;;;;;;;6.63;2.80;;;7.00;99.90;;;;;;5002935;28;20535;-80
2022/11/24 07:19:22;;;;;;;3.30;2.00;;;6.90;99.90;;;;;;5003897;28;20133;-80
2022/11/24 07:21:48;;;;;;;7.90;2.05;;;6.90;99.90;;;;;;5005114;28;20042;-79
2022/11/24 07:24:13;;;;;;;2.72;1.58;;;6.90;99.90;;;;;;5004419;28;20141;-79
2022/11/24 07:26:39;;;;;;;4.25;1.95;;;6.90;99.90;;;;;;4991470;28;20177;-80
2022/11/24 07:29:05;;;;;;;8.32;2.67;;;6.90;99.90;;;;;;4997822;28;20127;-82
2022/11/24 07:31:30;;;;;;;3.53;1.73;;;6.90;99.90;;;;;;5003689;28;20053;-84
2022/11/24 07:33:56;;;;;;;2.85;2.55;;;6.90;99.90;;;;;;5002054;28;21403;-83
2022/11/24 07:36:23;;;;;;;3.30;2.30;;;7.00;99.90;;;;;;5002558;28;20038;-79
2022/11/24 07:38:49;;;;;;;3.35;1.40;;;7.00;99.90;;;;;;5002542;28;20116;-79
2022/11/24 07:41:16;;;;;;;5.22;2.30;;;7.00;99.90;;;;;;5002836;28;20066;-82
2022/11/24 07:43:42;;;;;;;2.53;2.03;;;7.00;99.90;;;;;;5002329;28;20061;-81
2022/11/24 07:46:11;;;;;;;2.13;1.52;;;7.10;99.90;;;;;;5001531;28;20495;-80
2022/11/24 07:48:37;;;;;;;2.28;1.65;;;7.00;99.90;;;;;;5002653;28;20042;-79
2022/11/24 07:51:03;;;;;;;8.38;2.35;;;7.10;99.90;;;;;;5002408;28;20048;-83
2022/11/24 07:53:30;;;;;;;2.47;1.73;;;7.10;99.90;;;;;;5001871;28;20052;-80
2022/11/24 07:55:59;;;;;;;4.47;2.22;;;7.10;99.90;;;;;;5001656;28;20266;-81
2022/11/24 07:58:26;;;;;;;7.82;2.47;;;7.10;99.90;;;;;;5002460;28;20244;-79
2022/11/24 08:00:52;;;;;;;3.40;2.20;;;7.20;99.90;;;;;;5001327;28;20046;-78
2022/11/24 08:03:17;;;;;;;5.78;2.20;;;7.20;99.90;;;;;;5000814;28;20046;-82
2022/11/24 08:05:43;;;;;;;4.97;2.88;;;7.20;99.90;;;;;;5001234;28;20054;-83
2022/11/24 08:08:08;;;;;;;4.10;2.55;;;7.30;99.90;;;;;;5001887;28;20559;-80
2022/11/24 08:10:34;;;;;;;5.78;2.17;;;7.30;99.90;;;;;;5000997;28;20044;-83
2022/11/24 08:13:01;;;;;;;10.35;3.10;;;7.40;99.90;;;;;;5000083;28;20136;-84
2022/11/24 08:15:26;;;;;;;6.47;4.05;;;7.40;99.90;;;;;;5001170;28;20037;-80
2022/11/24 08:17:52;;;;;;;11.73;4.60;;;7.40;99.90;;;;;;5001168;28;20108;-82
2022/11/24 08:20:18;;;;;;;6.55;3.80;;;7.50;99.90;;;;;;5000746;28;20077;-84
2022/11/24 08:22:43;;;;;;;4.60;2.95;;;7.50;99.90;;;;;;5002275;28;20268;-81
2022/11/24 08:25:09;;;;;;;8.35;3.60;;;7.50;99.90;;;;;;5001655;28;20037;-80
2022/11/24 08:27:35;;;;;;;9.07;3.78;;;7.60;99.90;;;;;;4981950;28;20112;-81
2022/11/24 08:30:01;;;;;;;8.13;2.88;;;7.50;99.90;;;;;;4981283;28;20230;-84
2022/11/24 08:32:27;;;;;;;8.98;3.30;;;7.60;99.90;;;;;;4964668;28;20046;-80
2022/11/24 08:34:52;;;;;;;11.65;5.03;;;7.60;99.90;;;;;;4981219;28;20419;-82
2022/11/24 08:37:18;;;;;;;11.15;2.60;;;7.60;99.90;;;;;;4982553;28;20046;-84
2022/11/24 08:39:44;;;;;;;3.00;2.65;;;7.60;99.90;;;;;;4980789;28;20049;-79
2022/11/24 08:42:09;;;;;;;11.27;2.10;;;7.60;99.90;;;;;;4982553;28;20050;-81
2022/11/24 08:44:35;;;;;;;4.25;1.98;;;7.60;99.90;;;;;;4981426;28;20101;-84
2022/11/24 08:47:00;;;;;;;4.95;1.73;;;7.60;99.90;;;;;;4981832;28;20125;-81
2022/11/24 08:49:26;;;;;;;3.55;1.80;;;7.60;99.90;;;;;;4982333;28;20038;-78
2022/11/24 08:51:52;;;;;;;4.63;1.45;;;7.60;99.90;;;;;;4980665;28;20113;-83
2022/11/24 08:54:17;;;;;;;12.52;2.10;;;7.60;99.90;;;;;;4980674;28;20056;-83
2022/11/24 08:56:44;;;;;;;3.92;1.77;;;7.60;99.90;;;;;;4982279;28;20068;-80
2022/11/24 08:59:13;;;;;;;3.85;2.00;;;7.60;99.90;;;;;;4981364;28;20050;-81
2022/11/24 09:01:38;;;;;;;2.00;1.05;;;7.60;99.90;;;;;;4980953;28;20508;-79
2022/11/24 09:04:04;;;;;;;4.93;1.10;;;7.60;99.90;;;;;;4981224;28;20120;-84
2022/11/24 09:06:30;;;;;;;1.92;1.55;;;7.70;99.90;;;;;;4981920;28;20643;-79
2022/11/24 09:08:57;;;;;;;7.53;1.73;;;7.70;99.90;;;;;;4981683;28;20047;-80
2022/11/24 09:11:24;;;;;;;4.32;1.17;;;7.70;99.90;;;;;;4981988;28;20055;-84
2022/11/24 09:13:50;;;;;;;3.08;1.10;;;7.70;99.90;;;;;;4978949;28;20042;-84
2022/11/24 09:16:18;;;;;;;4.90;1.38;;;7.70;99.90;;;;;;4983974;28;20445;-80
2022/11/24 09:18:45;;;;;;;4.75;1.85;;;7.70;99.90;;;;;;4986183;28;20051;-81
2022/11/24 09:21:19;;;;;;;4.07;1.40;;;7.70;99.90;;;;;;4986044;28;20038;-83
2022/11/24 09:23:50;;;;;;;3.83;0.80;;;7.70;99.90;;;;;;4986293;28;20042;-81
2022/11/24 09:26:21;;;;;;;4.55;1.80;;;7.70;99.90;;;;;;4995060;28;20065;-80
2022/11/24 09:28:47;;;;;;;3.65;1.23;;;7.70;99.90;;;;;;5004740;28;20054;-79
2022/11/24 09:31:15;;;;;;;4.07;1.75;;;7.70;99.90;;;;;;5004532;28;20091;-84
2022/11/24 09:33:41;;;;;;;1.23;1.00;;;7.70;99.90;;;;;;5003539;28;20045;-84
2022/11/24 09:36:07;;;;;;;4.85;1.25;;;7.80;99.90;;;;;;5002958;28;20050;-81
2022/11/24 09:38:33;;;;;;;4.88;2.55;;;7.70;99.90;;;;;;5005036;28;20061;-80
2022/11/24 09:41:17;;;;;;;2.90;1.38;;;7.80;99.90;;;;;;5003348;28;20041;-82
2022/11/24 09:43:59;;;;;;;1.27;0.90;;;7.80;99.90;;;;;;5001968;28;20081;-84
2022/11/24 09:46:45;;;;;;;3.80;1.20;;;7.80;99.90;;;;;;5002832;28;20041;-80
2022/11/24 09:49:20;;;;;;;5.43;1.63;;;7.90;99.90;;;;;;5004427;28;20104;-80
2022/11/24 09:51:51;;;;;;;5.35;2.25;;;7.90;99.90;;;;;;5005185;28;20061;-82
2022/11/24 09:54:24;;;;;;;2.53;1.30;;;7.90;99.90;;;;;;5004284;28;20046;-78
2022/11/24 09:56:51;;;;;;;3.67;2.53;;;8.00;99.90;;;;;;5004078;28;20117;-83
2022/11/24 09:59:21;;;;;;;3.55;1.45;;;8.00;99.90;;;;;;5002217;28;20443;-82
2022/11/24 10:01:48;;;;;;;5.43;2.15;;;8.10;99.90;;;;;;5002813;28;20512;-81
2022/11/24 10:04:30;;;;;;;2.85;1.42;;;8.10;99.90;;;;;;5005048;28;20073;-80
2022/11/24 10:07:13;;;;;;;1.95;1.23;;;8.10;99.90;;;;;;5002847;28;20049;-83
2022/11/24 10:09:47;;;;;;;4.15;2.00;;;8.10;99.90;;;;;;5002386;28;20053;-83
2022/11/24 10:12:26;;;;;;;4.57;1.67;;;8.10;99.90;;;;;;5003888;28;20137;-82
2022/11/24 10:15:00;;;;;;;6.63;3.83;;;8.20;99.90;;;;;;5001251;28;20053;-79
2022/11/24 10:18:04;;;;;;;3.40;2.13;;;8.20;99.90;;;;;;5004273;28;20049;-80
2022/11/24 10:20:53;;;;;;;1.67;1.35;;;8.20;99.90;;;;;;5002489;28;20076;-83
2022/11/24 10:23:48;;;;;;;7.60;1.85;;;8.20;99.90;;;;;;4999494;28;20464;-77
2022/11/24 10:26:14;;;;;;;5.72;2.47;;;8.20;99.90;;;;;;4997480;28;20124;-82
2022/11/24 10:28:54;;;;;;;3.47;1.88;;;8.20;99.90;;;;;;4998549;28;20128;-80
2022/11/24 10:31:35;;;;;;;2.53;1.92;;;8.30;99.90;;;;;;4974721;28;20042;-78
2022/11/24 10:34:15;;;;;;;4.25;2.22;;;8.30;99.90;;;;;;5002077;28;20046;-80
2022/11/24 10:37:06;;;;;;;3.88;2.38;;;8.30;99.90;;;;;;5002274;28;20111;-82
2022/11/24 10:39:45;;;;;;;5.35;2.35;;;8.30;99.90;;;;;;5003626;28;20037;-81
2022/11/24 10:42:18;;;;;;;8.30;2.97;;;8.40;99.90;;;;;;5001172;28;20042;-78
2022/11/24 10:44:44;;;;;;;5.05;2.58;;;8.40;99.90;;;;;;5001566;28;20050;-78
2022/11/24 10:47:21;;;;;;;6.55;3.90;;;8.40;99.90;;;;;;5003148;28;20052;-80
2022/11/24 10:50:03;;;;;;;3.95;3.08;;;8.40;99.90;;;;;;5003337;28;20579;-81
2022/11/24 10:52:35;;;;;;;6.50;3.65;;;8.40;99.90;;;;;;5003903;28;20042;-79
2022/11/24 10:55:03;;;;;;;7.43;2.65;;;8.40;99.90;;;;;;5003056;28;20037;-78
2022/11/24 10:57:34;;;;;;;8.98;3.75;;;8.40;99.90;;;;;;5003697;28;20072;-76
2022/11/24 11:00:03;;;;;;;3.50;2.80;;;8.50;99.90;;;;;;5002424;28;20467;-80
2022/11/24 11:02:35;;;;;;;5.50;3.20;;;8.50;99.90;;;;;;5003122;28;20481;-82
2022/11/24 11:05:22;;;;;;;8.45;3.25;;;8.50;99.90;;;;;;5001843;28;20492;-80
2022/11/24 11:07:47;;;;;;;9.88;3.60;;;8.50;99.90;;;;;;5002745;28;20045;-81
2022/11/24 11:10:20;;;;;;;6.60;3.45;;;8.50;99.90;;;;;;5002944;28;20373;-83
2022/11/24 11:12:46;;;;;;;5.28;2.75;;;8.50;99.90;;;;;;5001795;28;20053;-82
2022/11/24 11:15:26;;;;;;;6.97;3.35;;;8.60;99.90;;;;;;5001474;28;20034;-82
2022/11/24 11:17:56;;;;;;;20.90;4.43;;;8.60;99.90;;;;;;5001545;28;20524;-77
2022/11/24 11:20:26;;;;;;;6.93;3.97;;;8.60;99.90;;;;;;5001394;28;20085;-78
2022/11/24 11:22:53;;;;;;;6.38;4.55;;;8.60;99.90;;;;;;5000881;28;20072;-82
2022/11/24 11:25:35;;;;;;;3.80;2.80;;;8.60;99.90;;;;;;5000298;28;20034;-78
2022/11/24 11:28:26;;;;;;;5.20;2.58;;;8.60;99.90;;;;;;4987046;28;20282;-82
2022/11/24 11:31:01;;;;;;;9.48;3.67;;;8.60;99.90;;;;;;5000518;28;20515;-83
2022/11/24 11:33:29;;;;;;;9.43;2.78;;;8.70;99.90;;;;;;5001693;28;20113;-81
2022/11/24 11:35:56;;;;;;;9.25;3.78;;;8.70;99.90;;;;;;5003079;28;20049;-84
2022/11/24 11:38:23;;;;;;;15.98;3.38;;;8.70;99.90;;;;;;5002712;28;20345;-80
2022/11/24 11:40:50;;;;;;;10.02;4.30;;;8.70;99.90;;;;;;5001327;28;20131;-77
2022/11/24 11:43:19;;;;;;;9.93;4.53;;;8.70;99.90;;;;;;5002764;28;20102;-77
2022/11/24 11:45:56;;;;;;;4.85;2.42;;;8.70;99.90;;;;;;5000428;28;20034;-80
2022/11/24 11:48:33;;;;;;;6.22;2.70;;;8.80;99.90;;;;;;5000918;28;20052;-79
2022/11/24 11:51:08;;;;;;;7.60;3.60;;;8.80;99.90;;;;;;5000912;28;20042;-81
2022/11/24 11:53:44;;;;;;;10.65;4.13;;;8.80;99.90;;;;;;5001710;28;20042;-78
2022/11/24 11:56:21;;;;;;;11.10;3.67;;;8.80;99.90;;;;;;5002301;28;20136;-79
2022/11/24 11:59:24;;;;;;;22.15;4.28;;;8.80;99.90;;;;;;5001866;28;20050;-81
2022/11/24 12:02:34;;;;;;;4.55;3.38;;;8.80;99.90;;;;;;5000515;28;20502;-81
2022/11/24 12:05:05;;;;;;;5.55;3.10;;;8.80;99.90;;;;;;5000865;28;20092;-81
2022/11/24 12:08:01;;;;;;;6.18;3.15;;;8.80;99.90;;;;;;5002969;28;20038;-81
2022/11/24 12:10:58;;;;;;;7.15;3.50;;;8.90;99.90;;;;;;4983893;28;20037;-81
2022/11/24 12:13:42;;;;;;;8.23;2.17;;;8.90;99.90;;;;;;5000105;28;20057;-81
2022/11/24 12:16:26;;;;;;;8.45;3.38;;;8.90;99.90;;;;;;4985650;28;20038;-81
2022/11/24 12:19:12;;;;;;;9.02;3.38;;;8.90;99.90;;;;;;5001278;28;20065;-80
2022/11/24 12:21:50;;;;;;;17.08;3.35;;;8.90;99.90;;;;;;4999401;28;20300;-91
2022/11/24 12:24:22;;;;;;;10.98;3.00;;;8.90;99.90;;;;;;5002070;28;20120;-82
2022/11/24 12:26:53;;;;;;;4.85;2.40;;;8.90;99.90;;;;;;4989036;28;20117;-76
2022/11/24 12:29:48;;;;;;;6.47;1.88;;;8.90;99.90;;;;;;4990641;28;20534;-78
2022/11/24 12:32:42;;;;;;;4.25;2.85;;;9.00;99.90;;;;;;5002523;28;20092;-77
2022/11/24 12:35:18;;;;;;;10.02;3.83;;;9.00;99.90;;;;;;5000222;28;20077;-81
2022/11/24 12:38:21;;;;;;;7.82;3.50;;;8.90;99.90;;;;;;5001805;28;20100;-80
2022/11/24 12:40:47;;;;;;;;;;;9.00;99.90;;;;;;4996395;28;20050;-81
2022/11/24 12:43:23;;;;;;;5.07;2.83;;;9.00;99.90;;;;;;4995910;28;19921;-84
2022/11/24 12:45:59;;;;;;;5.28;3.03;;;9.00;99.90;;;;;;4992030;28;20488;-79
2022/11/24 12:48:59;;;;;;;7.93;2.05;;;9.00;99.90;;;;;;4998556;28;20143;-79
2022/11/24 12:51:38;;;;;;;14.00;3.33;;;9.00;99.90;;;;;;4942993;28;20385;-81
2022/11/24 12:54:11;;;;;;;2.63;2.15;;;9.00;99.90;;;;;;4995393;28;20137;-85
2022/11/24 12:56:41;;;;;;;4.38;2.20;;;9.00;99.90;;;;;;5005541;28;20413;-88
2022/11/24 12:59:24;;;;;;;5.78;3.03;;;9.00;99.90;;;;;;5004578;28;20041;-89
2022/11/24 13:01:55;;;;;;;3.22;2.53;;;9.00;99.90;;;;;;5002881;28;20138;-87
2022/11/24 13:04:39;;;;;;;6.03;2.78;;;9.00;99.90;;;;;;5006999;28;20226;-91
2022/11/24 13:07:12;;;;;;;6.13;2.58;;;9.00;99.90;;;;;;5006648;28;20124;-87
2022/11/24 13:10:16;;;;;;;5.68;2.30;;;9.00;99.90;;;;;;5005488;28;20497;-84